Flight Track Log - Related Links

Times and Time Zones

All times are in EST time to prevent confusion due to time zone crossing. See the N244A flight status page for this flight to view local times or setup timezone preferences in your user account.

Time Position Orientation Groundspeed Altitude Reporting Facility
EST Latitude Longitude Course Direction KTS MPH feet Rate Location/Type
Fri 04:36:06 PM 41.1000 -73.7833 323° Northwest 240 276 3,800  Level New York TRACON
Fri 04:38:08 PM 41.1731 -73.9436 301° West 260 299 13,000 3,923 Climbing New York Center
Fri 04:39:08 PM 41.2208 -74.0261 308° West 285 328 15,700 1,438 Climbing New York Center
Fri 04:40:09 PM 41.2864 -74.1369 308° West 344 396 15,900 198 Climbing New York Center
Fri 04:41:00 PM 41.3610 -74.3190 323° Northwest  Level Estimated
Fri 04:41:09 PM 41.3281 -74.2136 306° West 322 371 16,100  Level New York Center
Fri 04:42:10 PM 41.3811 -74.3214 303° West 305 351 16,000 -50 Descending New York Center
Fri 04:43:10 PM 41.4300 -74.4261 302° West 347 399 16,000 1,373 Level New York Center
Fri 04:44:08 PM 41.4881 -74.5594 300° West 378 435 18,700 3,102 Climbing New York Center
Fri 04:45:08 PM 41.5347 -74.6619 301° West 378 435 22,100 2,876 Climbing New York Center
Fri 04:46:09 PM 41.5811 -74.7756 299° West 373 429 24,500 2,132 Climbing New York Center
Fri 04:47:09 PM 41.6353 -74.8925 302° West 367 422 26,400 2,031 Climbing New York Center
Fri 04:49:24 PM 41.7436 -75.1481 300° West 365 420 31,100 1,867 Climbing Cleveland Center
Fri 04:50:09 PM 41.7850 -75.2411 301° West 362 417 32,000 514 Climbing New York Center
Fri 04:51:09 PM 41.8364 -75.3672 299° West 372 428 32,000  Level New York Center
Fri 04:52:10 PM 41.8897 -75.4961 299° West 383 441 32,000  Level New York Center
Fri 04:53:08 PM 41.9469 -75.6258 301° West 393 452 32,000  Level New York Center
Fri 04:54:09 PM 42.0017 -75.7636 298° West 407 468 32,000  Level New York Center
Fri 04:56:26 PM 42.1167 -76.0667 297° West 410 472 32,000  Level Toronto Center
Fri 04:57:26 PM 42.1833 -76.2000 304° West 410 472 32,000  Level Toronto Center
Fri 04:58:26 PM 42.2167 -76.3500 287° West 410 472 32,000  Level Toronto Center
Fri 04:59:26 PM 42.2500 -76.4833 289° West 410 472 32,000  Level Toronto Center
Fri 05:00:26 PM 42.3000 -76.6167 297° West 400 460 32,000  Level Toronto Center
Fri 05:01:26 PM 42.3500 -76.7500 297° West 410 472 32,000  Level Toronto Center
Fri 05:02:26 PM 42.4000 -76.9000 294° West 410 472 32,000 -350 Level Toronto Center
Fri 05:03:26 PM 42.4333 -77.0333 289° West 400 460 31,300 -950 Descending Toronto Center
Fri 05:04:26 PM 42.4833 -77.1667 297° West 400 460 30,100 -1,350 Descending Toronto Center
Fri 05:05:26 PM 42.5167 -77.3000 289° West 390 449 28,600 -1,370 Descending Toronto Center
Fri 05:05:58 PM 42.5533 -77.3900 299° West 393 452 28,000 -383 Descending Cleveland Center
Fri 05:07:00 PM 42.5933 -77.5264 292° West 390 449 28,000  Level Cleveland Center
Fri 05:08:02 PM 42.6361 -77.6650 293° West 394 453 28,000 -194 Level Cleveland Center
Fri 05:09:04 PM 42.6833 -77.8153 293° West 397 457 27,600 -484 Descending Cleveland Center
Fri 05:10:06 PM 42.7244 -77.9556 292° West 402 463 27,000 -290 Descending Cleveland Center
Fri 05:11:08 PM 42.7650 -78.0933 292° West 394 453 27,000 -48 Level Cleveland Center
Fri 05:12:10 PM 42.8139 -78.2581 292° West 392 451 26,900 -871 Descending Cleveland Center
Fri 05:13:12 PM 42.8539 -78.3939 292° West 388 447 25,200 -1,824 Descending Cleveland Center
Fri 05:14:15 PM 42.8942 -78.5306 292° West 390 449 23,100 -1,776 Descending Cleveland Center
Fri 05:15:17 PM 42.9386 -78.6653 294° West 340 391 21,500 -1,210 Descending Cleveland Center
Fri 05:16:19 PM 42.9778 -78.7411 305° West 269 310 20,600 -1,790 Descending Cleveland Center
Fri 05:17:21 PM 43.0233 -78.8258 306° West 280 322 17,800 -2,409 Descending Cleveland Center
Fri 05:18:26 PM 43.0667 -78.9000 309° West 280 322 15,500 -1,872 Descending Toronto Center
Fri 05:19:26 PM 43.1167 -79.0000 304° West 250 288 13,900 -1,700 Descending Toronto Center
Fri 05:20:26 PM 43.1500 -79.0667 304° West 240 276 12,100 -950 Descending Toronto Center
Fri 05:21:26 PM 43.2000 -79.1500 309° West 260 299 12,000 -50 Descending Toronto Center
Fri 05:22:26 PM 43.2333 -79.2167 304° West 260 299 12,000 -50 Level Toronto Center
Fri 05:23:26 PM 43.2833 -79.3167 305° West 270 311 11,900 -300 Descending Toronto Center
Fri 05:24:26 PM 43.3333 -79.3500 334° Northwest 260 299 11,400 -950 Descending Toronto Center
Fri 05:25:26 PM 43.4000 -79.4000 331° Northwest 260 299 10,000 -1,200 Descending Toronto Center
Fri 05:26:26 PM 43.4667 -79.4500 331° Northwest 250 288 9,000 -500 Descending Toronto Center
Fri 05:27:26 PM 43.5333 -79.5000 331° Northwest 250 288 9,000 -500 Level Toronto Center
Fri 05:28:26 PM 43.5833 -79.5167 346° North 230 265 8,000 -1,400 Descending Toronto Center
Fri 05:29:26 PM 43.6500 -79.4500 36° Northeast 240 276 6,200 -1,550 Descending Toronto Center
Fri 05:30:26 PM 43.7000 -79.4000 36° Northeast 240 276 4,900 -1,300 Descending Toronto Center
Fri 05:31:26 PM 43.7500 -79.4000 360° North 210 242 3,600 -1,000 Descending Toronto Center
Fri 05:32:26 PM 43.7833 -79.4500 313° West 190 219 2,900 -400 Descending Toronto Center
Fri 05:33:26 PM 43.7667 -79.5000 245° Southwest 160 184 2,800 -400 Descending Toronto Center
Fri 05:34:26 PM 43.7333 -79.5333 216° Southwest 160 184 2,100 -750 Descending Toronto Center
Fri 05:35:26 PM 43.7167 -79.5833 245° Southwest 130 150 1,300 -800 Descending Toronto Center

Login

Don't have an account? Register now (free) for customized features, flight alerts, and more!